KHZL

Details ICAO KHZL (HZL)
Name HAZLETON MUNI
Region United States
Timezone America/New_York (UTC-5.0)
Plans Departing 18
Arriving 10
Stats Elevation 1,603 ft / 489 m (AMSL)
Location 40.986782° -75.994893°
Runways 1
Magnetic Variation 11.898° W
Sunrise 2017-12-15 12:23:18 UTC / 2017-12-15 07:23:18 Local
Sunset 2017-12-15 21:37:57 UTC / 2017-12-15 16:37:57 Local
Advertisement - Login to hide

Runways

ID Width Length Bearing (true) Bearing (mag) Surface Threshold Offset Overrun Length
10 100 ft / 30 m 4,886 ft / 1,489 m 94.12° 106.02° Asphalt 0 ft / 0 m 0 ft / 0 m
28 100 ft / 30 m 4,886 ft / 1,489 m 274.13° 286.03° Asphalt 0 ft / 0 m 0 ft / 0 m

Approach Navaids

Runway Type Ident Frequency Range Bearing (true) Bearing (mag) Slope Elevation
28 Localiser IHZL 110.50 MHz 18 nm / 33 km 274.13° 286.03° - 1,603 ft / 489 m (AMSL)

Map

Weather


0- 5 10 15 20 25 30 35+ Temperature / ° C

Clouds and Precipitation
Forecast for 2017-12-16 00:00 UTC. Updated 33 minutes ago

Ground ~20,000 ft ~40,000 ft Winds

METAR

KHZL 152335Z AUTO 22003KT 10SM OVC012 M07/M10 A2984 RMK AO2

TAF

Not found

Frequencies

Recorded 119.97 MHz AWOS 3
Clearance 121.70 MHz CLNC DEL
Unicom 123.00 MHz CTAF/UNICOM
Approach 126.30 MHz WILKES BARRE APP/DEP
Warning: Do not use this data for real-world aviation or navigation. No guarantee of current accuracy is given.